sensor_id;sensor_type;location;lat;lon;timestamp;P1;durP1;ratioP1;P2;durP2;ratioP2
12535;SDS011;6334;48.696;2.114;2022-12-18T00:00:40;30.16;;;16.86;;
12535;SDS011;6334;48.696;2.114;2022-12-18T00:03:14;30.56;;;17.90;;
12535;SDS011;6334;48.696;2.114;2022-12-18T00:11:23;33.03;;;17.50;;
12535;SDS011;6334;48.696;2.114;2022-12-18T00:13:52;31.77;;;16.93;;
12535;SDS011;6334;48.696;2.114;2022-12-18T00:16:23;30.53;;;17.23;;
12535;SDS011;6334;48.696;2.114;2022-12-18T00:19:10;28.42;;;17.13;;
12535;SDS011;6334;48.696;2.114;2022-12-18T00:21:40;28.87;;;16.43;;
12535;SDS011;6334;48.696;2.114;2022-12-18T00:24:10;28.77;;;15.12;;
12535;SDS011;6334;48.696;2.114;2022-12-18T00:26:43;29.89;;;16.24;;
12535;SDS011;6334;48.696;2.114;2022-12-18T00:29:13;28.27;;;15.30;;
12535;SDS011;6334;48.696;2.114;2022-12-18T00:31:44;31.80;;;17.97;;
12535;SDS011;6334;48.696;2.114;2022-12-18T00:34:14;32.33;;;17.83;;
12535;SDS011;6334;48.696;2.114;2022-12-18T00:36:47;31.99;;;17.82;;
12535;SDS011;6334;48.696;2.114;2022-12-18T00:39:18;27.04;;;15.70;;
12535;SDS011;6334;48.696;2.114;2022-12-18T00:41:54;28.00;;;15.77;;
12535;SDS011;6334;48.696;2.114;2022-12-18T00:44:41;29.08;;;17.02;;
12535;SDS011;6334;48.696;2.114;2022-12-18T00:47:14;29.86;;;15.89;;
12535;SDS011;6334;48.696;2.114;2022-12-18T00:53:05;32.06;;;16.69;;
12535;SDS011;6334;48.696;2.114;2022-12-18T00:55:37;30.40;;;16.77;;
12535;SDS011;6334;48.696;2.114;2022-12-18T01:00:53;29.77;;;16.53;;
12535;SDS011;6334;48.696;2.114;2022-12-18T01:03:27;28.80;;;15.63;;
12535;SDS011;6334;48.696;2.114;2022-12-18T01:06:05;26.58;;;13.92;;
12535;SDS011;6334;48.696;2.114;2022-12-18T01:08:34;27.36;;;15.44;;
12535;SDS011;6334;48.696;2.114;2022-12-18T01:11:10;29.20;;;16.00;;
12535;SDS011;6334;48.696;2.114;2022-12-18T01:13:40;29.83;;;16.20;;
12535;SDS011;6334;48.696;2.114;2022-12-18T01:16:12;27.60;;;15.70;;
12535;SDS011;6334;48.696;2.114;2022-12-18T01:18:43;29.78;;;16.62;;
12535;SDS011;6334;48.696;2.114;2022-12-18T01:21:23;30.17;;;16.62;;
12535;SDS011;6334;48.696;2.114;2022-12-18T01:23:59;27.61;;;15.56;;
12535;SDS011;6334;48.696;2.114;2022-12-18T01:26:29;30.02;;;16.83;;
12535;SDS011;6334;48.696;2.114;2022-12-18T01:28:59;29.57;;;15.70;;
12535;SDS011;6334;48.696;2.114;2022-12-18T01:31:30;27.00;;;15.33;;
12535;SDS011;6334;48.696;2.114;2022-12-18T01:34:01;28.20;;;16.00;;
12535;SDS011;6334;48.696;2.114;2022-12-18T01:36:33;27.22;;;15.89;;
12535;SDS011;6334;48.696;2.114;2022-12-18T01:39:07;28.20;;;15.67;;
12535;SDS011;6334;48.696;2.114;2022-12-18T01:41:49;26.52;;;14.80;;
12535;SDS011;6334;48.696;2.114;2022-12-18T01:50:34;28.40;;;16.56;;
12535;SDS011;6334;48.696;2.114;2022-12-18T01:53:17;32.53;;;16.77;;
12535;SDS011;6334;48.696;2.114;2022-12-18T01:55:54;32.80;;;17.32;;
12535;SDS011;6334;48.696;2.114;2022-12-18T01:58:41;30.73;;;16.67;;
12535;SDS011;6334;48.696;2.114;2022-12-18T02:01:09;29.87;;;16.40;;
12535;SDS011;6334;48.696;2.114;2022-12-18T02:03:42;28.06;;;16.63;;
12535;SDS011;6334;48.696;2.114;2022-12-18T02:06:22;29.41;;;16.02;;
12535;SDS011;6334;48.696;2.114;2022-12-18T02:14:50;25.75;;;15.39;;
12535;SDS011;6334;48.696;2.114;2022-12-18T02:17:39;28.83;;;16.08;;
12535;SDS011;6334;48.696;2.114;2022-12-18T02:23:11;27.50;;;15.07;;
12535;SDS011;6334;48.696;2.114;2022-12-18T02:25:51;23.19;;;12.43;;
12535;SDS011;6334;48.696;2.114;2022-12-18T02:28:31;27.95;;;15.45;;
12535;SDS011;6334;48.696;2.114;2022-12-18T02:31:04;28.08;;;15.83;;
12535;SDS011;6334;48.696;2.114;2022-12-18T02:33:34;25.23;;;16.27;;
12535;SDS011;6334;48.696;2.114;2022-12-18T02:36:17;27.13;;;16.02;;
12535;SDS011;6334;48.696;2.114;2022-12-18T02:38:48;30.33;;;17.13;;
12535;SDS011;6334;48.696;2.114;2022-12-18T02:41:18;27.97;;;16.83;;
12535;SDS011;6334;48.696;2.114;2022-12-18T02:43:59;26.77;;;15.48;;
12535;SDS011;6334;48.696;2.114;2022-12-18T02:46:31;25.30;;;15.35;;
12535;SDS011;6334;48.696;2.114;2022-12-18T02:51:51;28.34;;;15.99;;
12535;SDS011;6334;48.696;2.114;2022-12-18T02:56:54;26.83;;;15.10;;
12535;SDS011;6334;48.696;2.114;2022-12-18T02:59:32;29.07;;;16.16;;
12535;SDS011;6334;48.696;2.114;2022-12-18T03:02:11;26.98;;;15.27;;
12535;SDS011;6334;48.696;2.114;2022-12-18T03:04:47;27.17;;;16.00;;
12535;SDS011;6334;48.696;2.114;2022-12-18T03:07:18;23.43;;;14.40;;
12535;SDS011;6334;48.696;2.114;2022-12-18T03:09:47;24.96;;;15.31;;
12535;SDS011;6334;48.696;2.114;2022-12-18T03:12:30;27.90;;;16.18;;
12535;SDS011;6334;48.696;2.114;2022-12-18T03:17:55;24.85;;;15.21;;
12535;SDS011;6334;48.696;2.114;2022-12-18T03:20:26;26.35;;;15.30;;
12535;SDS011;6334;48.696;2.114;2022-12-18T03:23:11;24.43;;;13.98;;
12535;SDS011;6334;48.696;2.114;2022-12-18T03:25:40;23.84;;;14.34;;
12535;SDS011;6334;48.696;2.114;2022-12-18T03:30:59;25.94;;;14.87;;
12535;SDS011;6334;48.696;2.114;2022-12-18T03:33:45;24.47;;;14.37;;
12535;SDS011;6334;48.696;2.114;2022-12-18T03:36:12;23.80;;;13.70;;
12535;SDS011;6334;48.696;2.114;2022-12-18T03:41:59;26.82;;;15.22;;
12535;SDS011;6334;48.696;2.114;2022-12-18T03:44:37;26.17;;;15.45;;
12535;SDS011;6334;48.696;2.114;2022-12-18T03:47:34;27.15;;;15.38;;
12535;SDS011;6334;48.696;2.114;2022-12-18T03:50:15;26.80;;;15.55;;
12535;SDS011;6334;48.696;2.114;2022-12-18T03:52:48;27.37;;;15.67;;
12535;SDS011;6334;48.696;2.114;2022-12-18T03:55:20;29.16;;;15.96;;
12535;SDS011;6334;48.696;2.114;2022-12-18T03:57:53;27.93;;;16.98;;
12535;SDS011;6334;48.696;2.114;2022-12-18T04:00:23;26.98;;;16.25;;
12535;SDS011;6334;48.696;2.114;2022-12-18T04:02:53;27.80;;;16.27;;
12535;SDS011;6334;48.696;2.114;2022-12-18T04:05:34;29.23;;;16.95;;
12535;SDS011;6334;48.696;2.114;2022-12-18T04:08:07;26.42;;;15.75;;
12535;SDS011;6334;48.696;2.114;2022-12-18T04:10:38;29.58;;;16.03;;
12535;SDS011;6334;48.696;2.114;2022-12-18T04:13:08;25.92;;;15.35;;
12535;SDS011;6334;48.696;2.114;2022-12-18T04:15:40;27.20;;;16.02;;
12535;SDS011;6334;48.696;2.114;2022-12-18T04:18:13;26.31;;;15.53;;
12535;SDS011;6334;48.696;2.114;2022-12-18T04:20:48;26.41;;;16.06;;
12535;SDS011;6334;48.696;2.114;2022-12-18T04:23:22;26.34;;;15.46;;
12535;SDS011;6334;48.696;2.114;2022-12-18T04:25:52;25.51;;;15.06;;
12535;SDS011;6334;48.696;2.114;2022-12-18T04:28:31;26.19;;;13.77;;
12535;SDS011;6334;48.696;2.114;2022-12-18T04:31:05;23.05;;;13.62;;
12535;SDS011;6334;48.696;2.114;2022-12-18T04:33:36;24.55;;;15.15;;
12535;SDS011;6334;48.696;2.114;2022-12-18T04:38:55;26.03;;;15.10;;
12535;SDS011;6334;48.696;2.114;2022-12-18T04:41:26;26.00;;;14.83;;
12535;SDS011;6334;48.696;2.114;2022-12-18T04:43:59;24.90;;;13.88;;
12535;SDS011;6334;48.696;2.114;2022-12-18T04:46:28;25.60;;;14.93;;
12535;SDS011;6334;48.696;2.114;2022-12-18T04:49:06;27.25;;;15.75;;
12535;SDS011;6334;48.696;2.114;2022-12-18T04:51:38;24.40;;;14.70;;
12535;SDS011;6334;48.696;2.114;2022-12-18T04:54:08;25.42;;;14.93;;
12535;SDS011;6334;48.696;2.114;2022-12-18T04:56:40;24.73;;;14.23;;
12535;SDS011;6334;48.696;2.114;2022-12-18T04:59:12;26.92;;;15.52;;
12535;SDS011;6334;48.696;2.114;2022-12-18T05:01:43;25.40;;;14.97;;
12535;SDS011;6334;48.696;2.114;2022-12-18T05:04:13;28.77;;;14.83;;
12535;SDS011;6334;48.696;2.114;2022-12-18T05:06:54;23.86;;;14.51;;
12535;SDS011;6334;48.696;2.114;2022-12-18T05:09:25;28.14;;;16.09;;
12535;SDS011;6334;48.696;2.114;2022-12-18T05:11:58;26.07;;;14.94;;
12535;SDS011;6334;48.696;2.114;2022-12-18T05:14:37;26.98;;;14.84;;
12535;SDS011;6334;48.696;2.114;2022-12-18T05:17:09;25.56;;;15.34;;
12535;SDS011;6334;48.696;2.114;2022-12-18T05:22:33;22.20;;;12.83;;
12535;SDS011;6334;48.696;2.114;2022-12-18T05:25:12;22.19;;;12.09;;
12535;SDS011;6334;48.696;2.114;2022-12-18T05:27:43;25.70;;;14.10;;
12535;SDS011;6334;48.696;2.114;2022-12-18T05:30:14;25.20;;;14.38;;
12535;SDS011;6334;48.696;2.114;2022-12-18T05:32:43;24.60;;;14.82;;
12535;SDS011;6334;48.696;2.114;2022-12-18T05:35:13;26.27;;;15.57;;
12535;SDS011;6334;48.696;2.114;2022-12-18T05:37:46;27.72;;;16.27;;
12535;SDS011;6334;48.696;2.114;2022-12-18T05:40:16;25.37;;;14.97;;
12535;SDS011;6334;48.696;2.114;2022-12-18T05:42:45;25.47;;;15.40;;
12535;SDS011;6334;48.696;2.114;2022-12-18T05:45:16;27.52;;;15.12;;
12535;SDS011;6334;48.696;2.114;2022-12-18T05:47:46;27.23;;;15.27;;
12535;SDS011;6334;48.696;2.114;2022-12-18T05:50:19;25.62;;;15.06;;
12535;SDS011;6334;48.696;2.114;2022-12-18T05:52:49;27.83;;;15.25;;
12535;SDS011;6334;48.696;2.114;2022-12-18T05:55:22;24.57;;;14.95;;
12535;SDS011;6334;48.696;2.114;2022-12-18T05:57:51;26.53;;;15.46;;
12535;SDS011;6334;48.696;2.114;2022-12-18T06:00:21;24.51;;;14.15;;
12535;SDS011;6334;48.696;2.114;2022-12-18T06:02:51;27.20;;;15.70;;
12535;SDS011;6334;48.696;2.114;2022-12-18T06:05:26;24.71;;;15.26;;
12535;SDS011;6334;48.696;2.114;2022-12-18T06:07:55;24.73;;;14.15;;
12535;SDS011;6334;48.696;2.114;2022-12-18T06:10:31;19.76;;;12.54;;
12535;SDS011;6334;48.696;2.114;2022-12-18T06:13:01;25.83;;;15.18;;
12535;SDS011;6334;48.696;2.114;2022-12-18T06:15:32;25.83;;;15.03;;
12535;SDS011;6334;48.696;2.114;2022-12-18T06:18:06;25.09;;;15.32;;
12535;SDS011;6334;48.696;2.114;2022-12-18T06:20:35;28.02;;;16.18;;
12535;SDS011;6334;48.696;2.114;2022-12-18T06:23:05;24.75;;;14.18;;
12535;SDS011;6334;48.696;2.114;2022-12-18T06:25:37;25.88;;;14.92;;
12535;SDS011;6334;48.696;2.114;2022-12-18T06:28:06;24.69;;;15.62;;
12535;SDS011;6334;48.696;2.114;2022-12-18T06:30:39;23.74;;;15.20;;
12535;SDS011;6334;48.696;2.114;2022-12-18T06:33:11;29.57;;;16.77;;
12535;SDS011;6334;48.696;2.114;2022-12-18T06:35:41;27.70;;;16.80;;
12535;SDS011;6334;48.696;2.114;2022-12-18T06:38:13;26.42;;;15.13;;
12535;SDS011;6334;48.696;2.114;2022-12-18T06:40:43;26.30;;;15.65;;
12535;SDS011;6334;48.696;2.114;2022-12-18T06:43:16;26.10;;;15.44;;
12535;SDS011;6334;48.696;2.114;2022-12-18T06:45:45;25.10;;;14.57;;
12535;SDS011;6334;48.696;2.114;2022-12-18T06:48:15;24.47;;;13.94;;
12535;SDS011;6334;48.696;2.114;2022-12-18T06:50:48;24.80;;;14.77;;
12535;SDS011;6334;48.696;2.114;2022-12-18T06:53:20;23.50;;;14.13;;
12535;SDS011;6334;48.696;2.114;2022-12-18T06:55:50;24.62;;;14.42;;
12535;SDS011;6334;48.696;2.114;2022-12-18T06:58:20;23.03;;;13.53;;
12535;SDS011;6334;48.696;2.114;2022-12-18T07:00:59;24.96;;;13.79;;
12535;SDS011;6334;48.696;2.114;2022-12-18T07:03:27;26.60;;;14.43;;
12535;SDS011;6334;48.696;2.114;2022-12-18T07:05:57;25.50;;;14.35;;
12535;SDS011;6334;48.696;2.114;2022-12-18T07:08:30;24.47;;;14.10;;
12535;SDS011;6334;48.696;2.114;2022-12-18T07:11:04;24.35;;;14.06;;
12535;SDS011;6334;48.696;2.114;2022-12-18T07:13:38;23.32;;;14.08;;
12535;SDS011;6334;48.696;2.114;2022-12-18T07:16:09;24.10;;;14.15;;
12535;SDS011;6334;48.696;2.114;2022-12-18T07:18:38;25.37;;;14.48;;
12535;SDS011;6334;48.696;2.114;2022-12-18T07:21:10;23.88;;;13.98;;
12535;SDS011;6334;48.696;2.114;2022-12-18T07:23:39;23.60;;;13.90;;
12535;SDS011;6334;48.696;2.114;2022-12-18T07:26:10;26.10;;;15.33;;
12535;SDS011;6334;48.696;2.114;2022-12-18T07:28:47;25.39;;;14.10;;
12535;SDS011;6334;48.696;2.114;2022-12-18T07:31:19;26.58;;;14.98;;
12535;SDS011;6334;48.696;2.114;2022-12-18T07:33:50;25.37;;;15.43;;
12535;SDS011;6334;48.696;2.114;2022-12-18T07:36:21;27.25;;;15.90;;
12535;SDS011;6334;48.696;2.114;2022-12-18T07:38:51;25.70;;;16.40;;
12535;SDS011;6334;48.696;2.114;2022-12-18T07:41:24;29.00;;;16.07;;
12535;SDS011;6334;48.696;2.114;2022-12-18T07:43:54;27.37;;;16.17;;
12535;SDS011;6334;48.696;2.114;2022-12-18T07:46:24;26.17;;;15.53;;
12535;SDS011;6334;48.696;2.114;2022-12-18T07:48:53;25.83;;;14.70;;
12535;SDS011;6334;48.696;2.114;2022-12-18T07:51:25;24.63;;;14.07;;
12535;SDS011;6334;48.696;2.114;2022-12-18T07:53:56;23.10;;;14.00;;
12535;SDS011;6334;48.696;2.114;2022-12-18T07:56:26;24.40;;;14.67;;
12535;SDS011;6334;48.696;2.114;2022-12-18T07:59:01;25.24;;;15.09;;
12535;SDS011;6334;48.696;2.114;2022-12-18T08:01:31;25.67;;;15.17;;
12535;SDS011;6334;48.696;2.114;2022-12-18T08:07:07;25.30;;;15.32;;
12535;SDS011;6334;48.696;2.114;2022-12-18T08:09:39;24.03;;;14.87;;
12535;SDS011;6334;48.696;2.114;2022-12-18T08:12:26;24.30;;;14.63;;
12535;SDS011;6334;48.696;2.114;2022-12-18T08:14:56;25.20;;;14.90;;
12535;SDS011;6334;48.696;2.114;2022-12-18T08:20:21;27.77;;;19.25;;
12535;SDS011;6334;48.696;2.114;2022-12-18T08:29:36;20.90;;;13.43;;
12535;SDS011;6334;48.696;2.114;2022-12-18T08:35:19;24.17;;;14.63;;
12535;SDS011;6334;48.696;2.114;2022-12-18T08:42:39;34.55;;;11.48;;
12535;SDS011;6334;48.696;2.114;2022-12-18T08:45:27;22.27;;;13.50;;
12535;SDS011;6334;48.696;2.114;2022-12-18T08:47:58;23.23;;;13.87;;
12535;SDS011;6334;48.696;2.114;2022-12-18T08:50:35;23.49;;;13.89;;
12535;SDS011;6334;48.696;2.114;2022-12-18T08:53:08;24.70;;;14.53;;
12535;SDS011;6334;48.696;2.114;2022-12-18T08:55:37;25.37;;;14.43;;
12535;SDS011;6334;48.696;2.114;2022-12-18T08:58:10;26.43;;;12.90;;
12535;SDS011;6334;48.696;2.114;2022-12-18T09:00:43;28.93;;;16.30;;
12535;SDS011;6334;48.696;2.114;2022-12-18T09:11:40;23.27;;;13.93;;
12535;SDS011;6334;48.696;2.114;2022-12-18T09:14:22;24.05;;;14.56;;
12535;SDS011;6334;48.696;2.114;2022-12-18T09:16:54;24.34;;;14.62;;
12535;SDS011;6334;48.696;2.114;2022-12-18T09:32:53;19.77;;;11.63;;
12535;SDS011;6334;48.696;2.114;2022-12-18T09:49:02;29.54;;;17.42;;
12535;SDS011;6334;48.696;2.114;2022-12-18T09:50:45;29.83;;;20.83;;
12535;SDS011;6334;48.696;2.114;2022-12-18T09:53:19;30.42;;;18.90;;
12535;SDS011;6334;48.696;2.114;2022-12-18T10:17:56;23.85;;;13.69;;
12535;SDS011;6334;48.696;2.114;2022-12-18T10:20:43;25.47;;;14.17;;
12535;SDS011;6334;48.696;2.114;2022-12-18T10:26:20;29.04;;;18.18;;
12535;SDS011;6334;48.696;2.114;2022-12-18T10:35:58;34.83;;;20.30;;
12535;SDS011;6334;48.696;2.114;2022-12-18T10:47:17;37.67;;;21.47;;
12535;SDS011;6334;48.696;2.114;2022-12-18T10:49:49;28.87;;;18.20;;
12535;SDS011;6334;48.696;2.114;2022-12-18T10:55:34;27.63;;;17.87;;
12535;SDS011;6334;48.696;2.114;2022-12-18T11:06:17;26.67;;;16.90;;
12535;SDS011;6334;48.696;2.114;2022-12-18T11:18:01;49.07;;;29.25;;
12535;SDS011;6334;48.696;2.114;2022-12-18T11:20:32;38.57;;;25.67;;
12535;SDS011;6334;48.696;2.114;2022-12-18T11:37:12;30.24;;;17.74;;
12535;SDS011;6334;48.696;2.114;2022-12-18T12:11:50;30.90;;;16.67;;
12535;SDS011;6334;48.696;2.114;2022-12-18T12:23:48;24.47;;;15.65;;
12535;SDS011;6334;48.696;2.114;2022-12-18T12:34:54;26.15;;;15.65;;
12535;SDS011;6334;48.696;2.114;2022-12-18T12:37:38;22.57;;;14.83;;
12535;SDS011;6334;48.696;2.114;2022-12-18T12:46:27;29.30;;;16.15;;
12535;SDS011;6334;48.696;2.114;2022-12-18T12:49:01;25.83;;;15.53;;
12535;SDS011;6334;48.696;2.114;2022-12-18T13:03:06;26.13;;;15.57;;
12535;SDS011;6334;48.696;2.114;2022-12-18T13:05:53;22.87;;;14.77;;
12535;SDS011;6334;48.696;2.114;2022-12-18T13:08:50;24.39;;;14.91;;
12535;SDS011;6334;48.696;2.114;2022-12-18T13:11:03;29.47;;;17.27;;
12535;SDS011;6334;48.696;2.114;2022-12-18T13:13:53;25.50;;;15.77;;
12535;SDS011;6334;48.696;2.114;2022-12-18T13:16:25;24.15;;;14.43;;
12535;SDS011;6334;48.696;2.114;2022-12-18T13:18:55;25.33;;;15.67;;
12535;SDS011;6334;48.696;2.114;2022-12-18T13:21:41;25.28;;;14.89;;
12535;SDS011;6334;48.696;2.114;2022-12-18T13:24:22;26.00;;;14.50;;
12535;SDS011;6334;48.696;2.114;2022-12-18T13:26:45;23.90;;;14.60;;
12535;SDS011;6334;48.696;2.114;2022-12-18T13:45:04;27.13;;;15.37;;
12535;SDS011;6334;48.696;2.114;2022-12-18T13:56:26;25.85;;;16.12;;
12535;SDS011;6334;48.696;2.114;2022-12-18T14:03:15;24.67;;;15.00;;
12535;SDS011;6334;48.696;2.114;2022-12-18T14:05:41;22.05;;;13.64;;
12535;SDS011;6334;48.696;2.114;2022-12-18T14:13:53;25.24;;;14.43;;
12535;SDS011;6334;48.696;2.114;2022-12-18T14:16:24;23.58;;;14.27;;
12535;SDS011;6334;48.696;2.114;2022-12-18T14:26:42;26.43;;;16.30;;
12535;SDS011;6334;48.696;2.114;2022-12-18T14:29:29;48.09;;;26.57;;
12535;SDS011;6334;48.696;2.114;2022-12-18T14:32:11;30.53;;;18.33;;
12535;SDS011;6334;48.696;2.114;2022-12-18T14:37:31;22.02;;;13.85;;
12535;SDS011;6334;48.696;2.114;2022-12-18T14:49:37;21.14;;;13.33;;
12535;SDS011;6334;48.696;2.114;2022-12-18T15:02:34;22.58;;;14.20;;
12535;SDS011;6334;48.696;2.114;2022-12-18T15:19:34;23.69;;;14.53;;
12535;SDS011;6334;48.696;2.114;2022-12-18T15:27:21;23.14;;;13.41;;
12535;SDS011;6334;48.696;2.114;2022-12-18T15:33:36;21.07;;;11.93;;
12535;SDS011;6334;48.696;2.114;2022-12-18T15:44:43;19.77;;;12.21;;
12535;SDS011;6334;48.696;2.114;2022-12-18T15:52:46;21.33;;;12.67;;
12535;SDS011;6334;48.696;2.114;2022-12-18T15:55:24;19.09;;;11.93;;
12535;SDS011;6334;48.696;2.114;2022-12-18T16:07:03;22.44;;;13.45;;
12535;SDS011;6334;48.696;2.114;2022-12-18T16:09:38;19.37;;;12.63;;
12535;SDS011;6334;48.696;2.114;2022-12-18T16:12:15;22.84;;;14.40;;
12535;SDS011;6334;48.696;2.114;2022-12-18T16:29:26;17.57;;;10.87;;
12535;SDS011;6334;48.696;2.114;2022-12-18T16:32:11;20.44;;;12.31;;
12535;SDS011;6334;48.696;2.114;2022-12-18T16:39:14;19.45;;;12.01;;
12535;SDS011;6334;48.696;2.114;2022-12-18T16:41:45;20.53;;;13.13;;
12535;SDS011;6334;48.696;2.114;2022-12-18T16:44:21;20.63;;;12.90;;
12535;SDS011;6334;48.696;2.114;2022-12-18T16:47:04;18.44;;;12.08;;
12535;SDS011;6334;48.696;2.114;2022-12-18T16:53:21;21.37;;;13.00;;
12535;SDS011;6334;48.696;2.114;2022-12-18T17:11:15;20.80;;;12.13;;
12535;SDS011;6334;48.696;2.114;2022-12-18T17:13:51;19.87;;;10.63;;
12535;SDS011;6334;48.696;2.114;2022-12-18T17:16:23;17.95;;;10.63;;
12535;SDS011;6334;48.696;2.114;2022-12-18T17:19:07;17.19;;;10.57;;
12535;SDS011;6334;48.696;2.114;2022-12-18T17:21:38;19.57;;;12.13;;
12535;SDS011;6334;48.696;2.114;2022-12-18T17:24:08;18.77;;;12.07;;
12535;SDS011;6334;48.696;2.114;2022-12-18T17:42:08;23.27;;;12.52;;
12535;SDS011;6334;48.696;2.114;2022-12-18T18:06:05;23.51;;;12.46;;
12535;SDS011;6334;48.696;2.114;2022-12-18T18:22:03;18.23;;;10.18;;
12535;SDS011;6334;48.696;2.114;2022-12-18T18:27:42;18.63;;;10.43;;
12535;SDS011;6334;48.696;2.114;2022-12-18T18:30:31;15.72;;;9.64;;
12535;SDS011;6334;48.696;2.114;2022-12-18T18:37:47;15.20;;;9.38;;
12535;SDS011;6334;48.696;2.114;2022-12-18T18:40:21;18.77;;;10.05;;
12535;SDS011;6334;48.696;2.114;2022-12-18T18:45:57;18.12;;;9.98;;
12535;SDS011;6334;48.696;2.114;2022-12-18T18:52:03;15.45;;;9.27;;
12535;SDS011;6334;48.696;2.114;2022-12-18T18:58:02;13.87;;;8.33;;
12535;SDS011;6334;48.696;2.114;2022-12-18T19:05:24;14.20;;;8.20;;
12535;SDS011;6334;48.696;2.114;2022-12-18T19:13:59;15.00;;;8.88;;
12535;SDS011;6334;48.696;2.114;2022-12-18T19:24:22;13.38;;;8.05;;
12535;SDS011;6334;48.696;2.114;2022-12-18T19:55:01;15.13;;;9.13;;
12535;SDS011;6334;48.696;2.114;2022-12-18T19:57:37;13.53;;;8.00;;
12535;SDS011;6334;48.696;2.114;2022-12-18T20:00:21;15.97;;;9.88;;
12535;SDS011;6334;48.696;2.114;2022-12-18T20:02:54;14.80;;;8.90;;
12535;SDS011;6334;48.696;2.114;2022-12-18T20:16:11;13.80;;;8.80;;
12535;SDS011;6334;48.696;2.114;2022-12-18T20:25:52;16.97;;;9.97;;
12535;SDS011;6334;48.696;2.114;2022-12-18T20:32:08;14.50;;;9.07;;
12535;SDS011;6334;48.696;2.114;2022-12-18T20:55:39;12.77;;;8.17;;
12535;SDS011;6334;48.696;2.114;2022-12-18T20:58:22;16.57;;;9.06;;
12535;SDS011;6334;48.696;2.114;2022-12-18T21:01:11;13.27;;;8.63;;
12535;SDS011;6334;48.696;2.114;2022-12-18T21:23:18;14.90;;;9.13;;
12535;SDS011;6334;48.696;2.114;2022-12-18T21:26:13;16.04;;;8.54;;
12535;SDS011;6334;48.696;2.114;2022-12-18T22:16:24;13.80;;;8.57;;
12535;SDS011;6334;48.696;2.114;2022-12-18T22:25:15;10.50;;;6.43;;
12535;SDS011;6334;48.696;2.114;2022-12-18T22:27:52;12.36;;;6.80;;
12535;SDS011;6334;48.696;2.114;2022-12-18T22:37:01;10.57;;;6.67;;
12535;SDS011;6334;48.696;2.114;2022-12-18T22:39:49;14.12;;;8.06;;
12535;SDS011;6334;48.696;2.114;2022-12-18T22:42:19;14.02;;;7.52;;
12535;SDS011;6334;48.696;2.114;2022-12-18T22:44:55;11.84;;;7.04;;
12535;SDS011;6334;48.696;2.114;2022-12-18T22:50:42;10.03;;;6.23;;
12535;SDS011;6334;48.696;2.114;2022-12-18T22:56:33;9.70;;;5.97;;
12535;SDS011;6334;48.696;2.114;2022-12-18T23:05:28;13.73;;;6.60;;
12535;SDS011;6334;48.696;2.114;2022-12-18T23:08:10;10.09;;;6.36;;
12535;SDS011;6334;48.696;2.114;2022-12-18T23:10:42;11.90;;;6.97;;
12535;SDS011;6334;48.696;2.114;2022-12-18T23:13:13;10.25;;;6.22;;
12535;SDS011;6334;48.696;2.114;2022-12-18T23:15:46;9.80;;;5.87;;
12535;SDS011;6334;48.696;2.114;2022-12-18T23:25:29;10.37;;;6.37;;
12535;SDS011;6334;48.696;2.114;2022-12-18T23:43:40;9.03;;;5.60;;
12535;SDS011;6334;48.696;2.114;2022-12-18T23:49:17;9.05;;;5.57;;
12535;SDS011;6334;48.696;2.114;2022-12-18T23:54:35;7.19;;;4.93;;
12535;SDS011;6334;48.696;2.114;2022-12-18T23:57:06;11.26;;;6.12;;
